Middlebury State AP, Middlebu, VT

1:38 AM EST on November 12, 2019 (GMT -0500)
Middlebury State AP, Middlebu

Weather History for K6B0 - October, 2019

Change the Weather History Date:

Monday, October 14, 2019

  Actual Average (KRUT) Record (KRUT)
Temperature  
Mean Temperature 51 °F -  
Max Temperature 66 °F 61 °F 80 °F (1954)
Min Temperature 37 °F 39 °F 20 °F (1993)
Degree Days  
Heating Degree Days 14    
Growing Degree Days 1 (Base 50)    
Moisture  
Dew Point 40 °F    
Average Humidity 71    
Maximum Humidity 96    
Minimum Humidity 42    
Precipitation  
Precipitation 0.00 in - - ()
Sea Level Pressure  
Sea Level Pressure 29.94 in    
Wind  
Wind Speed 2 mph ()    
Max Wind Speed 16 mph    
Max Gust Speed 21 mph    
Visibility 10.0 miles    
Events      
Averages and records for this station are not official NWS values.
T = Trace of Precipitation, MM = Missing Value Source: Averaged Metar Reports

Daily Weather History Graph

Daily Weather History Graph

Search for Another Location

Airport or City:

Astronomy

Oct. 14, 2019 Rise Set
Actual Time 7:05 AM EDT 6:10 PM EDT
Civil Twilight 6:36 AM EDT 6:39 PM EDT
Nautical Twilight 6:02 AM EDT 7:13 PM EDT
Astronomical Twilight 5:29 AM EDT 7:46 PM EDT
Moon 6:59 PM EDT (10/14) 7:33 AM EDT (10/14)
Length of Visible Light 12h 03m
Length of Day
11h 05m
Waxing Gibbous, 99% of the Moon is Illuminated
Oct 14
Waxing Gibbous
Oct 21
Last Quarter
Oct 27
New
Nov 4
First Quarter
Nov 12
Full

Hourly Weather History & Observations

Time (EDT) Temp. Windchill Dew Point Humidity Pressure Visibility Wind Dir Wind Speed Gust Speed Precip Events Conditions
12:15 AM 42.3 °F - 37.0 °F 82% 29.97 in 10.0 mi Calm Calm - N/A   Clear
12:20 AM 42.6 °F - 37.4 °F 82% 29.97 in 10.0 mi Calm Calm - N/A   Clear
12:37 AM 41.5 °F - 37.8 °F 86% 29.97 in 10.0 mi Calm Calm - N/A   Clear
12:55 AM 40.8 °F - 37.4 °F 88% 29.97 in 10.0 mi Calm Calm - N/A   Clear
1:15 AM 41.4 °F - 37.4 °F 86% 29.97 in 10.0 mi Calm Calm - N/A   Clear
1:16 AM 41.2 °F - 37.2 °F 86% 29.97 in 10.0 mi Calm Calm - N/A   Clear
1:35 AM 39.9 °F - 36.5 °F 88% 29.97 in 10.0 mi Calm Calm - N/A   Clear
1:36 AM 39.7 °F - 36.3 °F 88% 29.97 in 10.0 mi Calm Calm - N/A   Clear
1:58 AM 39.4 °F - 36.9 °F 91% 29.97 in 10.0 mi Calm Calm - N/A   Clear
2:16 AM 38.5 °F - 36.0 °F 91% 29.96 in 10.0 mi Calm Calm - N/A   Clear
2:36 AM 38.5 °F - 36.9 °F 94% 29.96 in 10.0 mi Calm Calm - N/A   Clear
2:55 AM 39.9 °F - 37.6 °F 91% 29.95 in 10.0 mi Calm Calm - N/A   Clear
2:56 AM 40.1 °F - 37.6 °F 91% 29.95 in 10.0 mi Calm Calm - N/A   Clear
3:15 AM 38.3 °F - 36.1 °F 92% 29.94 in 10.0 mi Calm Calm - N/A   Clear
3:19 AM 38.5 °F 36.1 °F 36.7 °F 93% 29.94 in 10.0 mi South 3.5 mph - N/A   Clear
3:37 AM 39.0 °F - 36.5 °F 91% 29.93 in 10.0 mi Calm Calm - N/A   Clear
3:56 AM 38.3 °F 35.9 °F 36.1 °F 92% 29.93 in 10.0 mi SSE 3.5 mph - N/A   Clear
4:15 AM 38.5 °F - 35.8 °F 90% 29.93 in 10.0 mi Calm Calm - N/A   Clear
4:16 AM 38.1 °F - 35.6 °F 91% 29.93 in 10.0 mi Calm Calm - N/A   Clear
4:35 AM 37.4 °F - 36.0 °F 95% 29.94 in 10.0 mi Calm Calm - N/A   Clear
4:58 AM 37.6 °F - 35.8 °F 93% 29.95 in 10.0 mi Calm Calm - N/A   Clear
5:16 AM 37.4 °F - 36.3 °F 96% 29.94 in 10.0 mi Calm Calm - N/A   Clear
5:36 AM 38.8 °F - 37.8 °F 96% 29.94 in 10.0 mi Calm Calm - N/A   Clear
5:55 AM 37.6 °F - 36.1 °F 95% 29.94 in 10.0 mi Calm Calm - N/A   Clear
5:56 AM 37.8 °F - 36.5 °F 95% 29.94 in 10.0 mi Calm Calm - N/A   Clear
6:15 AM 39.0 °F 36.8 °F 37.0 °F 93% 29.94 in 10.0 mi South 3.5 mph - N/A   Clear
6:19 AM 39.6 °F - 37.2 °F 91% 29.94 in 10.0 mi Calm Calm - N/A   Clear
6:37 AM 38.5 °F - 36.7 °F 93% 29.94 in 10.0 mi Calm Calm - N/A   Clear
6:55 AM 39.0 °F - 37.6 °F 95% 29.94 in 10.0 mi Calm Calm - N/A   Clear
7:15 AM 38.7 °F - 37.0 °F 94% 29.93 in 10.0 mi Calm Calm - N/A   Clear
7:16 AM 38.5 °F - 36.9 °F 94% 29.93 in 10.0 mi Calm Calm - N/A   Clear
7:35 AM 39.2 °F - 37.4 °F 93% 29.92 in 10.0 mi Calm Calm - N/A   Clear
7:36 AM 39.2 °F - 37.4 °F 93% 29.92 in 10.0 mi Calm Calm - N/A   Clear
7:58 AM 39.2 °F - 37.4 °F 93% 29.93 in 10.0 mi Calm Calm - N/A   Clear
8:16 AM 41.5 °F - 39.4 °F 92% 29.93 in 10.0 mi Calm Calm - N/A   Clear
8:36 AM 43.7 °F - 39.9 °F 87% 29.94 in 10.0 mi Calm Calm - N/A   Clear
8:55 AM 46.8 °F - 42.6 °F 85% 29.94 in 10.0 mi Calm Calm - N/A   Clear
8:56 AM 46.9 °F - 42.8 °F 86% 29.94 in 10.0 mi Calm Calm - N/A   Clear
9:15 AM 49.3 °F - 43.0 °F 79% 29.94 in 10.0 mi Calm Calm - N/A   Clear
9:19 AM 50.0 °F - 42.3 °F 75% 29.94 in 10.0 mi Calm Calm - N/A   Clear
9:37 AM 52.2 °F - 43.7 °F 73% 29.93 in 10.0 mi Calm Calm - N/A   Clear
9:56 AM 55.4 °F - 43.7 °F 65% 29.94 in 10.0 mi SSE 3.5 mph - N/A   Clear
10:15 AM 55.8 °F - 42.3 °F 60% 29.93 in 10.0 mi South 8.1 mph - N/A   Clear
10:35 AM 57.2 °F - 42.3 °F 57% 29.93 in 10.0 mi SSW 9.2 mph - N/A   Clear
10:36 AM 57.2 °F - 42.3 °F 57% 29.93 in 10.0 mi SSW 9.2 mph - N/A   Clear
10:58 AM 58.3 °F - 45.1 °F 62% 29.92 in 10.0 mi South 8.1 mph - N/A   Clear
11:16 AM 59.7 °F - 46.8 °F 62% 29.92 in 10.0 mi SSW 6.9 mph - N/A   Scattered Clouds
11:36 AM 59.5 °F - 47.5 °F 64% 29.92 in 10.0 mi SSW 8.1 mph 17.3 mph N/A   Scattered Clouds
11:55 AM 59.9 °F - 47.1 °F 63% 29.90 in 10.0 mi SSW 11.5 mph - N/A   Clear
11:56 AM 59.9 °F - 47.1 °F 63% 29.90 in 10.0 mi SSW 11.5 mph - N/A   Clear
12:15 PM 61.0 °F - 47.7 °F 62% 29.89 in 10.0 mi SSE 9.2 mph 16.1 mph N/A   Clear
12:19 PM 61.3 °F - 48.2 °F 62% 29.90 in 10.0 mi South 12.7 mph - N/A   Clear
12:37 PM 61.5 °F - 46.6 °F 58% 29.89 in 10.0 mi South 16.1 mph 20.7 mph N/A   Clear
12:55 PM 62.6 °F - 45.7 °F 54% 29.88 in 10.0 mi South 15.0 mph 18.4 mph N/A   Clear
1:15 PM 62.8 °F - 45.3 °F 53% 29.87 in 10.0 mi SSW 13.8 mph 17.3 mph N/A   Clear
1:16 PM 62.8 °F - 45.0 °F 52% 29.87 in 10.0 mi South 13.8 mph 17.3 mph N/A   Clear
1:35 PM 63.3 °F - 46.0 °F 53% 29.86 in 10.0 mi South 12.7 mph 18.4 mph N/A   Clear
1:59 PM 64.8 °F - 43.2 °F 45% 29.85 in 10.0 mi South 13.8 mph 20.7 mph N/A   Clear
2:16 PM 64.6 °F - 43.7 °F 47% 29.85 in 10.0 mi South 10.4 mph 18.4 mph N/A   Scattered Clouds
2:36 PM 65.5 °F - 41.9 °F 42% 29.85 in 10.0 mi South 10.4 mph 17.3 mph N/A   Mostly Cloudy
2:55 PM 65.7 °F - 42.8 °F 43% 29.85 in 10.0 mi SW 8.1 mph 17.3 mph N/A   Scattered Clouds
2:56 PM 65.8 °F - 42.8 °F 43% 29.85 in 10.0 mi SSW 8.1 mph 17.3 mph N/A   Scattered Clouds
3:15 PM 65.3 °F - 42.4 °F 43% 29.86 in 10.0 mi SW 9.2 mph 16.1 mph N/A   Mostly Cloudy
3:19 PM 64.8 °F - 43.0 °F 45% 29.86 in 10.0 mi SSW 10.4 mph - N/A   Mostly Cloudy
3:38 PM 63.0 °F - 43.2 °F 48% 29.86 in 10.0 mi SSW 10.4 mph - N/A   Overcast
3:55 PM 62.8 °F - 43.2 °F 49% 29.87 in 10.0 mi SSW 10.4 mph - N/A   Overcast
4:15 PM 61.7 °F - 44.4 °F 53% 29.87 in 10.0 mi South 5.8 mph - N/A   Overcast
4:16 PM 61.5 °F - 44.4 °F 53% 29.87 in 10.0 mi South 5.8 mph - N/A   Overcast
4:35 PM 61.5 °F - 44.1 °F 53% 29.88 in 10.0 mi South 3.5 mph - N/A   Overcast
4:39 PM 61.0 °F - 44.6 °F 55% 29.88 in 10.0 mi Calm Calm - N/A   Overcast
4:57 PM 61.2 °F - 44.2 °F 54% 29.89 in 10.0 mi Calm Calm - N/A   Overcast
5:16 PM 60.4 °F - 42.3 °F 51% 29.89 in 10.0 mi NW 4.6 mph - N/A   Overcast
5:35 PM 59.5 °F - 40.6 °F 50% 29.90 in 10.0 mi NNW 3.5 mph - N/A   Overcast
5:36 PM 59.5 °F - 40.8 °F 50% 29.91 in 10.0 mi NW 3.5 mph - N/A   Overcast
5:55 PM 59.0 °F - 40.3 °F 50% 29.92 in 10.0 mi Calm Calm - N/A   Overcast
6:18 PM 57.6 °F - 43.2 °F 59% 29.93 in 10.0 mi NNW 8.1 mph - N/A   Overcast
6:35 PM 55.6 °F - 44.4 °F 66% 29.94 in 10.0 mi NNW 6.9 mph - N/A   Overcast
6:55 PM 54.5 °F - 44.2 °F 68% 29.95 in 10.0 mi NNW 6.9 mph - N/A   Overcast
6:56 PM 54.5 °F - 44.1 °F 68% 29.95 in 10.0 mi NNW 6.9 mph - N/A   Overcast
7:15 PM 54.0 °F - 43.9 °F 69% 29.97 in 10.0 mi NW 3.5 mph - N/A   Overcast
7:16 PM 54.0 °F - 43.9 °F 69% 29.97 in 10.0 mi WNW 3.5 mph - N/A   Overcast
7:39 PM 53.2 °F - 43.7 °F 70% 29.98 in 10.0 mi NNW 5.8 mph - N/A   Overcast
7:56 PM 52.0 °F - 43.7 °F 73% 29.99 in 10.0 mi North 3.5 mph - N/A   Overcast
8:16 PM 52.7 °F - 43.7 °F 71% 30.00 in 10.0 mi West 3.5 mph - N/A   Overcast
8:35 PM 52.7 °F - 43.3 °F 70% 30.01 in 10.0 mi Calm Calm - N/A   Overcast
8:58 PM 52.0 °F - 38.8 °F 61% 30.02 in 10.0 mi South 3.5 mph - N/A   Overcast
9:16 PM 51.1 °F - 35.4 °F 55% 30.02 in 10.0 mi SSW 4.6 mph - N/A   Mostly Cloudy
9:35 PM 49.5 °F - 33.8 °F 55% 30.03 in 10.0 mi SSW 4.6 mph - N/A   Scattered Clouds
9:36 PM 49.3 °F - 33.6 °F 55% 30.02 in 10.0 mi SSW 4.6 mph - N/A   Scattered Clouds
9:55 PM 47.7 °F - 33.4 °F 58% 30.03 in 10.0 mi Calm Calm - N/A   Scattered Clouds
9:56 PM 47.5 °F - 33.8 °F 59% 30.03 in 10.0 mi Calm Calm - N/A   Scattered Clouds
10:15 PM 47.5 °F - 33.6 °F 59% 30.04 in 10.0 mi SSE 3.5 mph - N/A   Mostly Cloudy
10:19 PM 47.3 °F - 34.2 °F 60% 30.03 in 10.0 mi Calm Calm - N/A   Mostly Cloudy
10:37 PM 47.7 °F - 34.5 °F 60% 30.04 in 10.0 mi Calm Calm - N/A   Overcast
10:55 PM 45.3 °F - 35.1 °F 67% 30.04 in 10.0 mi Calm Calm - N/A   Mostly Cloudy
11:15 PM 44.2 °F - 35.2 °F 71% 30.04 in 10.0 mi Calm Calm - N/A   Mostly Cloudy
11:35 PM 44.4 °F - 35.1 °F 70% 30.05 in 10.0 mi Calm Calm - N/A   Overcast
11:39 PM 44.6 °F - 34.9 °F 69% 30.05 in 10.0 mi Calm Calm - N/A   Overcast
11:57 PM 43.5 °F - 35.2 °F 73% 30.05 in 10.0 mi Calm Calm - N/A   Mostly Cloudy